createdAt,value
2023-04-26T00:01:18.570Z,73.54
2023-04-26T00:03:46.712Z,73.68
2023-04-26T00:06:16.493Z,74.18
2023-04-26T00:08:44.394Z,74.36
2023-04-26T00:11:12.397Z,74.01
2023-04-26T00:13:40.863Z,74.03
2023-04-26T00:16:08.969Z,74.00
2023-04-26T00:18:37.363Z,74.01
2023-04-26T00:21:05.709Z,74.49
2023-04-26T00:23:36.589Z,74.06
2023-04-26T00:26:04.937Z,74.12
2023-04-26T00:28:32.865Z,74.16
2023-04-26T00:31:00.745Z,74.42
2023-04-26T00:33:28.834Z,74.63
2023-04-26T00:35:56.797Z,74.59
2023-04-26T00:38:24.790Z,74.45
2023-04-26T00:40:53.950Z,74.83
2023-04-26T00:43:21.744Z,74.91
2023-04-26T00:45:50.458Z,74.56
2023-04-26T00:48:19.282Z,74.82
2023-04-26T00:50:48.475Z,74.79
2023-04-26T00:53:17.788Z,75.18
2023-04-26T00:55:46.728Z,75.05
2023-04-26T00:58:15.982Z,75.18
2023-04-26T01:00:43.910Z,74.89
2023-04-26T01:03:12.569Z,74.86
2023-04-26T01:05:40.525Z,74.68
2023-04-26T01:08:09.111Z,75.32
2023-04-26T01:10:37.286Z,75.08
2023-04-26T01:13:05.536Z,75.21
2023-04-26T01:15:36.609Z,74.93
2023-04-26T01:18:06.466Z,75.74
2023-04-26T01:20:34.926Z,75.55
2023-04-26T01:23:07.654Z,75.46
2023-04-26T01:25:37.977Z,75.56
2023-04-26T01:28:05.957Z,75.26
2023-04-26T01:30:33.968Z,75.36
2023-04-26T01:33:02.515Z,75.70
2023-04-26T01:35:30.509Z,75.27
2023-04-26T01:37:58.499Z,75.83
2023-04-26T01:40:27.865Z,75.32
2023-04-26T01:42:55.743Z,75.50
2023-04-26T01:45:24.278Z,76.06
2023-04-26T01:47:52.126Z,76.04
2023-04-26T01:50:20.444Z,75.91
2023-04-26T01:52:48.949Z,75.97
2023-04-26T01:55:17.000Z,75.93
2023-04-26T01:57:46.280Z,75.84
2023-04-26T02:00:14.752Z,75.84
2023-04-26T02:02:42.755Z,75.99
2023-04-26T02:05:13.267Z,76.03
2023-04-26T02:07:41.233Z,75.92
2023-04-26T02:10:10.469Z,75.77
2023-04-26T02:12:38.279Z,76.06
2023-04-26T02:15:09.568Z,76.08
2023-04-26T02:17:39.275Z,76.10
2023-04-26T02:20:10.514Z,76.24
2023-04-26T02:22:38.415Z,76.30
2023-04-26T02:25:07.221Z,75.90
2023-04-26T02:27:37.250Z,75.99
2023-04-26T02:30:14.691Z,76.49
2023-04-26T02:32:42.742Z,76.21
2023-04-26T02:35:10.784Z,76.57
2023-04-26T02:37:39.426Z,76.56
2023-04-26T02:40:10.967Z,76.74
2023-04-26T02:42:38.885Z,76.49
2023-04-26T02:45:07.940Z,76.50
2023-04-26T02:47:38.735Z,76.94
2023-04-26T02:50:07.920Z,76.90
2023-04-26T02:52:36.073Z,76.41
2023-04-26T02:55:04.911Z,76.78
2023-04-26T02:57:32.969Z,76.91
2023-04-26T03:00:01.283Z,76.62
2023-04-26T03:02:29.362Z,76.59
2023-04-26T03:04:58.943Z,77.05
2023-04-26T03:07:26.900Z,77.23
2023-04-26T03:09:54.825Z,76.98
2023-04-26T03:12:22.626Z,77.10
2023-04-26T03:14:50.430Z,77.15
2023-04-26T03:17:18.230Z,77.11
2023-04-26T03:19:46.035Z,76.77
2023-04-26T03:22:16.315Z,77.62
2023-04-26T03:24:44.239Z,77.50
2023-04-26T03:27:12.089Z,77.17
2023-04-26T03:29:41.251Z,77.61
2023-04-26T03:32:10.013Z,77.54
2023-04-26T03:34:37.953Z,77.05
2023-04-26T03:37:05.830Z,77.17
2023-04-26T03:39:35.081Z,77.79
2023-04-26T03:42:05.615Z,77.11
2023-04-26T03:44:33.417Z,78.08
2023-04-26T03:47:01.510Z,77.69
2023-04-26T03:49:29.316Z,77.65
2023-04-26T03:51:57.264Z,77.24
2023-04-26T03:54:25.180Z,77.34
2023-04-26T03:56:54.626Z,77.73
2023-04-26T03:59:22.424Z,78.22
2023-04-26T04:01:50.254Z,77.79
2023-04-26T04:04:18.456Z,78.04
2023-04-26T04:06:46.367Z,78.33
2023-04-26T04:09:14.260Z,78.45
2023-04-26T04:11:42.035Z,77.61
2023-04-26T04:14:11.252Z,77.71
2023-04-26T04:16:39.039Z,77.64
2023-04-26T04:19:06.937Z,77.94
2023-04-26T04:21:35.100Z,78.40
2023-04-26T04:24:02.898Z,78.55
2023-04-26T04:26:31.082Z,77.84
2023-04-26T04:29:00.716Z,78.37
2023-04-26T04:31:30.125Z,78.36
2023-04-26T04:33:59.115Z,78.79
2023-04-26T04:36:27.203Z,78.34
2023-04-26T04:38:55.123Z,78.32
2023-04-26T04:41:23.646Z,78.36
2023-04-26T04:43:51.618Z,78.63
2023-04-26T04:46:19.460Z,78.04
2023-04-26T04:48:48.693Z,78.13
2023-04-26T04:51:16.591Z,78.46
2023-04-26T04:53:44.481Z,78.60
2023-04-26T04:56:12.495Z,78.88
2023-04-26T04:58:40.271Z,78.58
2023-04-26T05:01:08.100Z,78.55
2023-04-26T05:03:36.703Z,78.34
2023-04-26T05:06:06.952Z,79.02
2023-04-26T05:08:34.774Z,78.59
2023-04-26T05:11:02.982Z,78.59
2023-04-26T05:13:31.099Z,79.15
2023-04-26T05:15:58.910Z,78.57
2023-04-26T05:18:26.841Z,78.58
2023-04-26T05:20:54.624Z,79.15
2023-04-26T05:23:23.757Z,79.32
2023-04-26T05:25:51.912Z,79.07
2023-04-26T05:28:19.761Z,79.09
2023-04-26T05:30:47.839Z,79.15
2023-04-26T05:33:15.638Z,78.71
2023-04-26T05:35:43.521Z,79.45
2023-04-26T05:38:11.259Z,79.10
2023-04-26T05:40:40.515Z,79.38
2023-04-26T05:43:08.521Z,79.39
2023-04-26T05:45:36.457Z,79.14
2023-04-26T05:48:04.620Z,79.14
2023-04-26T05:50:32.767Z,79.13
2023-04-26T05:53:00.618Z,79.03
2023-04-26T05:55:28.445Z,79.00
2023-04-26T05:57:58.500Z,79.23
2023-04-26T06:00:26.720Z,79.16
2023-04-26T06:02:54.514Z,79.40
2023-04-26T06:05:23.173Z,79.26
2023-04-26T06:07:51.868Z,79.26
2023-04-26T06:10:19.750Z,79.53
2023-04-26T06:12:48.216Z,79.42
2023-04-26T06:15:17.646Z,79.54
2023-04-26T06:17:45.684Z,79.27
2023-04-26T06:20:13.639Z,79.35
2023-04-26T06:22:41.383Z,79.34
2023-04-26T06:25:09.538Z,79.41
2023-04-26T06:27:39.141Z,79.13
2023-04-26T06:30:08.726Z,79.57
2023-04-26T06:32:39.937Z,79.26
2023-04-26T06:35:08.412Z,79.01
2023-04-26T06:37:36.280Z,79.44
2023-04-26T06:40:04.342Z,79.20
2023-04-26T06:42:32.187Z,79.43
2023-04-26T06:45:00.133Z,79.50
2023-04-26T06:47:28.072Z,79.20
2023-04-26T06:49:57.668Z,79.49
2023-04-26T06:52:26.258Z,79.50
2023-04-26T06:54:57.584Z,79.16
2023-04-26T06:57:26.002Z,79.34
2023-04-26T06:59:53.866Z,79.15
2023-04-26T07:02:23.535Z,79.16
2023-04-26T07:04:52.256Z,78.97
2023-04-26T07:07:21.993Z,78.79
2023-04-26T07:09:49.790Z,79.09
2023-04-26T07:12:17.563Z,78.77
2023-04-26T07:14:45.894Z,78.86
2023-04-26T07:17:13.762Z,79.06
2023-04-26T07:19:41.692Z,78.52
2023-04-26T07:22:09.449Z,79.15
2023-04-26T07:24:38.685Z,78.85
2023-04-26T07:27:06.822Z,79.27
2023-04-26T07:29:34.734Z,78.50
2023-04-26T07:32:02.567Z,78.35
2023-04-26T07:34:30.510Z,78.93
2023-04-26T07:36:58.297Z,78.95
2023-04-26T07:39:26.209Z,78.91
2023-04-26T07:41:55.578Z,78.94
2023-04-26T07:44:23.382Z,78.86
2023-04-26T07:46:51.265Z,78.83
2023-04-26T07:49:19.271Z,78.14
2023-04-26T07:51:47.272Z,78.38
2023-04-26T07:54:15.345Z,78.30
2023-04-26T07:56:43.132Z,77.97
2023-04-26T07:59:12.416Z,78.69
2023-04-26T08:01:40.293Z,78.40
2023-04-26T08:04:08.252Z,78.17
2023-04-26T08:06:36.261Z,78.76
2023-04-26T08:09:05.161Z,78.64
2023-04-26T08:11:33.056Z,78.36
2023-04-26T08:14:00.868Z,78.63
2023-04-26T08:16:30.067Z,78.16
2023-04-26T08:19:02.746Z,78.74
2023-04-26T08:21:31.020Z,78.75
2023-04-26T08:23:58.764Z,78.65
2023-04-26T08:26:26.665Z,79.09
2023-04-26T08:28:54.551Z,78.92
2023-04-26T08:31:23.023Z,79.04
2023-04-26T08:33:52.556Z,78.31
2023-04-26T08:36:20.657Z,78.40
2023-04-26T08:38:48.380Z,78.39
2023-04-26T08:41:23.499Z,78.61
2023-04-26T08:43:51.676Z,78.34
2023-04-26T08:46:21.748Z,78.09
2023-04-26T08:48:59.060Z,78.30
2023-04-26T08:51:29.000Z,78.12
2023-04-26T08:53:59.149Z,78.40
2023-04-26T08:56:27.619Z,78.58
2023-04-26T08:58:55.611Z,78.33
2023-04-26T09:01:25.226Z,78.33
2023-04-26T09:03:53.409Z,78.01
2023-04-26T09:06:24.187Z,77.80
2023-04-26T09:08:53.237Z,78.08
2023-04-26T09:11:21.045Z,77.98
2023-04-26T09:13:48.927Z,77.79
2023-04-26T09:16:16.846Z,77.53
2023-04-26T09:18:52.787Z,77.65
2023-04-26T09:21:22.362Z,77.78
2023-04-26T09:24:00.249Z,77.97
2023-04-26T09:26:28.156Z,77.69
2023-04-26T09:29:14.963Z,77.71
2023-04-26T09:31:47.795Z,77.94
2023-04-26T09:34:17.318Z,77.94
2023-04-26T09:36:55.643Z,77.89
2023-04-26T09:39:34.046Z,77.73
2023-04-26T09:42:02.965Z,78.22
2023-04-26T09:44:32.184Z,78.45
2023-04-26T09:47:01.772Z,77.17
2023-04-26T09:49:31.233Z,77.16
2023-04-26T09:52:05.357Z,77.66
2023-04-26T09:54:41.031Z,77.46
2023-04-26T09:57:08.828Z,76.91
2023-04-26T09:59:44.006Z,77.33
2023-04-26T10:02:16.195Z,77.17
2023-04-26T10:04:49.020Z,77.24
2023-04-26T10:07:19.494Z,77.62
2023-04-26T10:09:48.510Z,77.42
2023-04-26T10:12:17.731Z,77.14
2023-04-26T10:14:46.574Z,77.37
2023-04-26T10:17:15.196Z,77.04
2023-04-26T10:19:45.035Z,77.16
2023-04-26T10:22:18.514Z,77.28
2023-04-26T10:24:49.149Z,77.29
2023-04-26T10:27:17.444Z,76.82
2023-04-26T10:30:12.038Z,77.08
2023-04-26T10:33:18.486Z,77.13
2023-04-26T10:36:17.053Z,77.14
2023-04-26T10:39:20.338Z,77.44
2023-04-26T10:41:49.654Z,77.35
2023-04-26T10:44:40.287Z,76.95
2023-04-26T10:47:21.449Z,76.90
2023-04-26T10:49:49.385Z,76.73
2023-04-26T10:52:20.224Z,76.88
2023-04-26T10:54:53.422Z,76.59
2023-04-26T10:57:23.981Z,76.43
2023-04-26T11:00:32.950Z,76.31
2023-04-26T11:03:08.844Z,76.22
2023-04-26T11:05:39.463Z,76.33
2023-04-26T11:08:09.427Z,76.35
2023-04-26T11:10:41.040Z,76.09
2023-04-26T11:13:10.275Z,75.92
2023-04-26T11:15:38.078Z,75.86
2023-04-26T11:18:06.708Z,75.76
2023-04-26T11:20:35.442Z,75.89
2023-04-26T11:23:03.364Z,75.74
2023-04-26T11:25:31.733Z,75.44
2023-04-26T11:28:03.622Z,75.68
2023-04-26T11:30:33.991Z,75.49
2023-04-26T11:33:02.355Z,75.38
2023-04-26T11:35:30.951Z,75.12
2023-04-26T11:38:01.971Z,74.91
2023-04-26T11:40:31.093Z,74.62
2023-04-26T11:43:03.173Z,74.75
2023-04-26T11:45:33.271Z,74.43
2023-04-26T11:48:04.408Z,74.39
2023-04-26T11:50:34.352Z,74.30
2023-04-26T11:53:04.754Z,74.15
2023-04-26T11:55:34.175Z,73.98
2023-04-26T11:58:03.574Z,73.35
2023-04-26T12:00:32.947Z,73.60
2023-04-26T12:03:07.315Z,73.56
2023-04-26T12:05:35.479Z,73.19
2023-04-26T12:08:03.401Z,73.33
2023-04-26T12:10:33.696Z,73.28
2023-04-26T12:13:01.839Z,72.88
2023-04-26T12:15:32.890Z,72.95
2023-04-26T12:18:02.303Z,72.82
2023-04-26T12:20:31.505Z,72.79
2023-04-26T12:23:01.310Z,72.30
2023-04-26T12:25:29.687Z,71.96
2023-04-26T12:27:58.363Z,72.02
2023-04-26T12:30:28.284Z,71.71
2023-04-26T12:33:05.737Z,71.72
2023-04-26T12:35:43.343Z,71.34
2023-04-26T12:38:12.452Z,71.21
2023-04-26T12:40:41.741Z,71.08
2023-04-26T12:43:09.713Z,70.83
2023-04-26T12:45:37.676Z,70.94
2023-04-26T12:48:07.084Z,70.67
2023-04-26T12:50:35.085Z,70.39
2023-04-26T12:53:02.905Z,70.29
2023-04-26T12:55:32.618Z,70.15
2023-04-26T12:58:01.104Z,69.85
2023-04-26T13:00:29.085Z,69.59
2023-04-26T13:02:57.074Z,69.04
2023-04-26T13:05:26.400Z,69.38
2023-04-26T13:07:54.306Z,68.90
2023-04-26T13:10:22.209Z,69.07
2023-04-26T13:12:50.179Z,68.96
2023-04-26T13:15:18.134Z,68.49
2023-04-26T13:17:46.184Z,68.22
2023-04-26T13:20:14.553Z,68.48
2023-04-26T13:22:43.780Z,68.22
2023-04-26T13:25:13.204Z,68.17
2023-04-26T13:27:41.129Z,68.08
2023-04-26T13:30:10.692Z,67.76
2023-04-26T13:32:38.453Z,67.80
2023-04-26T13:35:07.457Z,67.58
2023-04-26T13:37:35.542Z,67.78
2023-04-26T13:40:05.655Z,67.72
2023-04-26T13:42:33.591Z,67.45
2023-04-26T13:45:06.188Z,67.14
2023-04-26T13:47:34.570Z,67.25
2023-04-26T13:50:02.562Z,67.17
2023-04-26T13:52:30.534Z,66.71
2023-04-26T13:54:58.309Z,66.70
2023-04-26T13:57:27.532Z,66.67
2023-04-26T13:59:55.357Z,66.79
2023-04-26T14:02:24.510Z,66.61
2023-04-26T14:04:52.923Z,66.43
2023-04-26T14:07:21.259Z,65.98
2023-04-26T14:09:51.588Z,66.11
2023-04-26T14:12:19.913Z,65.87
2023-04-26T14:14:49.145Z,65.84
2023-04-26T14:17:16.969Z,65.64
2023-04-26T14:19:44.763Z,65.57
2023-04-26T14:22:13.136Z,65.51
2023-04-26T14:24:41.169Z,65.38
2023-04-26T14:27:08.945Z,65.30
2023-04-26T14:29:37.399Z,64.89
2023-04-26T14:32:08.053Z,64.80
2023-04-26T14:34:39.366Z,64.90
2023-04-26T14:37:07.281Z,64.79
2023-04-26T14:39:35.250Z,64.37
2023-04-26T14:42:03.472Z,64.56
2023-04-26T14:44:31.332Z,64.43
2023-04-26T14:46:59.115Z,64.48
2023-04-26T14:49:28.261Z,64.57
2023-04-26T14:51:56.145Z,64.60
2023-04-26T14:54:23.975Z,64.45
2023-04-26T14:56:51.954Z,64.46
2023-04-26T14:59:19.820Z,64.33
2023-04-26T15:01:47.658Z,64.12
2023-04-26T15:04:15.784Z,64.00
2023-04-26T15:06:45.091Z,63.78
2023-04-26T15:09:13.187Z,63.70
2023-04-26T15:11:41.253Z,63.54
2023-04-26T15:14:09.092Z,63.39
2023-04-26T15:16:36.972Z,63.36
2023-04-26T15:19:04.796Z,63.18
2023-04-26T15:21:34.340Z,62.97
2023-04-26T15:24:03.542Z,62.98
2023-04-26T15:26:31.333Z,62.85
2023-04-26T15:28:59.094Z,62.77
2023-04-26T15:31:27.117Z,62.70
2023-04-26T15:33:56.513Z,62.08
2023-04-26T15:36:24.695Z,62.18
2023-04-26T15:38:52.778Z,61.96
2023-04-26T15:41:21.996Z,61.58
2023-04-26T15:43:54.848Z,61.16
2023-04-26T15:46:23.108Z,61.05
2023-04-26T15:48:51.503Z,60.57
2023-04-26T15:51:19.407Z,60.68
2023-04-26T15:53:47.201Z,60.55
2023-04-26T15:56:15.745Z,60.65
2023-04-26T15:58:45.573Z,60.90
2023-04-26T16:01:13.858Z,60.72
2023-04-26T16:03:44.604Z,60.37
2023-04-26T16:06:14.507Z,60.67
2023-04-26T16:08:42.460Z,60.52
2023-04-26T16:11:10.603Z,60.02
2023-04-26T16:13:38.417Z,59.74
2023-04-26T16:16:10.669Z,59.73
2023-04-26T16:18:40.348Z,59.64
2023-04-26T16:21:09.727Z,59.10
2023-04-26T16:23:38.055Z,59.62
2023-04-26T16:28:51.996Z,58.58
2023-04-26T16:31:22.317Z,58.41
2023-04-26T16:33:50.086Z,58.87
2023-04-26T16:36:18.388Z,59.25
2023-04-26T16:38:46.206Z,58.69
2023-04-26T16:41:14.170Z,58.64
2023-04-26T16:43:41.918Z,58.06
2023-04-26T16:46:10.246Z,58.39
2023-04-26T16:48:40.149Z,57.87
2023-04-26T16:51:08.249Z,58.32
2023-04-26T16:53:37.706Z,58.13
2023-04-26T16:56:06.317Z,58.09
2023-04-26T16:58:34.320Z,58.18
2023-04-26T17:01:02.165Z,57.74
2023-04-26T17:03:30.216Z,58.11
2023-04-26T17:06:00.142Z,58.04
2023-04-26T17:08:28.222Z,57.93
2023-04-26T17:10:56.385Z,57.75
2023-04-26T17:13:29.130Z,58.00
2023-04-26T17:15:57.483Z,57.60
2023-04-26T17:18:25.301Z,57.55
2023-04-26T17:20:56.360Z,57.28
2023-04-26T17:23:26.351Z,57.54
2023-04-26T17:25:55.458Z,57.34
2023-04-26T17:28:23.879Z,57.22
2023-04-26T17:30:52.050Z,57.02
2023-04-26T17:33:20.215Z,57.01
2023-04-26T17:35:48.234Z,56.78
2023-04-26T17:38:16.007Z,56.67
2023-04-26T17:40:45.260Z,56.92
2023-04-26T17:43:13.004Z,56.68
2023-04-26T17:45:40.767Z,56.46
2023-04-26T17:48:12.880Z,56.40
2023-04-26T17:50:41.154Z,56.36
2023-04-26T17:53:09.175Z,56.21
2023-04-26T17:55:37.462Z,56.40
2023-04-26T17:58:06.763Z,56.05
2023-04-26T18:00:34.702Z,55.98
2023-04-26T18:03:05.420Z,56.07
2023-04-26T18:05:33.360Z,55.91
2023-04-26T18:08:01.228Z,56.15
2023-04-26T18:10:29.056Z,56.33
2023-04-26T18:12:56.955Z,55.81
2023-04-26T18:15:26.392Z,55.76
2023-04-26T18:17:54.918Z,55.52
2023-04-26T18:20:22.846Z,55.68
2023-04-26T18:22:50.691Z,56.26
2023-04-26T18:25:18.644Z,56.24
2023-04-26T18:27:47.808Z,55.81
2023-04-26T18:30:15.828Z,55.76
2023-04-26T18:32:45.015Z,56.09
2023-04-26T18:35:12.945Z,56.00
2023-04-26T18:37:41.977Z,55.51
2023-04-26T18:40:10.912Z,55.86
2023-04-26T18:42:38.967Z,55.26
2023-04-26T18:45:07.895Z,55.97
2023-04-26T18:47:35.821Z,55.43
2023-04-26T18:50:05.604Z,55.27
2023-04-26T18:52:33.665Z,55.80
2023-04-26T18:55:01.494Z,55.51
2023-04-26T18:57:29.482Z,55.80
2023-04-26T18:59:59.023Z,55.10
2023-04-26T19:02:26.926Z,55.60
2023-04-26T19:04:54.872Z,55.18
2023-04-26T19:07:24.178Z,54.92
2023-04-26T19:09:54.552Z,54.99
2023-04-26T19:12:23.068Z,55.38
2023-04-26T19:14:50.869Z,54.98
2023-04-26T19:17:18.824Z,54.78
2023-04-26T19:19:46.815Z,55.28
2023-04-26T19:22:14.745Z,54.61
2023-04-26T19:24:44.045Z,55.13
2023-04-26T19:27:12.430Z,55.04
2023-04-26T19:29:40.252Z,54.84
2023-04-26T19:32:08.643Z,54.78
2023-04-26T19:34:38.799Z,54.79
2023-04-26T19:37:07.106Z,54.86
2023-04-26T19:39:35.333Z,54.72
2023-04-26T19:42:05.081Z,55.24
2023-04-26T19:44:32.967Z,55.17
2023-04-26T19:47:00.974Z,54.58
2023-04-26T19:49:29.220Z,54.32
2023-04-26T19:51:57.182Z,54.73
2023-04-26T19:54:25.246Z,54.51
2023-04-26T19:56:53.107Z,54.54
2023-04-26T19:59:22.255Z,54.33
2023-04-26T20:01:51.021Z,54.69
2023-04-26T20:04:21.433Z,55.01
2023-04-26T20:06:49.491Z,54.74
2023-04-26T20:09:17.440Z,54.74
2023-04-26T20:11:45.241Z,54.68
2023-04-26T20:14:12.992Z,54.73
2023-04-26T20:16:42.166Z,54.38
2023-04-26T20:19:10.740Z,54.48
2023-04-26T20:21:38.730Z,54.61
2023-04-26T20:24:07.265Z,54.61
2023-04-26T20:26:35.192Z,54.31
2023-04-26T20:29:03.045Z,54.13
2023-04-26T20:31:31.063Z,54.57
2023-04-26T20:34:00.805Z,54.28
2023-04-26T20:36:28.801Z,54.36
2023-04-26T20:38:56.684Z,54.58
2023-04-26T20:41:24.540Z,54.52
2023-04-26T20:43:53.017Z,54.48
2023-04-26T20:46:20.971Z,54.28
2023-04-26T20:48:49.096Z,54.35
2023-04-26T20:51:18.266Z,54.30
2023-04-26T20:53:46.246Z,54.15
2023-04-26T20:56:14.051Z,54.46
2023-04-26T20:58:41.926Z,54.48
2023-04-26T21:01:11.146Z,54.24
2023-04-26T21:03:39.509Z,54.40
2023-04-26T21:06:07.423Z,54.64
2023-04-26T21:08:37.072Z,54.33
2023-04-26T21:11:05.151Z,54.27
2023-04-26T21:13:32.889Z,54.28
2023-04-26T21:16:02.508Z,54.33
2023-04-26T21:18:30.685Z,54.22
2023-04-26T21:20:58.461Z,54.45
2023-04-26T21:23:26.364Z,54.26
2023-04-26T21:25:55.595Z,54.26
2023-04-26T21:28:23.329Z,54.18
2023-04-26T21:30:51.252Z,54.25
2023-04-26T21:33:19.248Z,54.23
2023-04-26T21:35:47.027Z,54.23
2023-04-26T21:38:14.813Z,54.05
2023-04-26T21:40:42.672Z,54.26
2023-04-26T21:43:11.810Z,54.07
2023-04-26T21:45:39.715Z,54.17
2023-04-26T21:48:07.590Z,54.04
2023-04-26T21:50:35.466Z,54.20
2023-04-26T21:53:03.297Z,54.34
2023-04-26T21:55:31.025Z,54.21
2023-04-26T21:57:58.909Z,54.06
2023-04-26T22:00:28.338Z,54.29
2023-04-26T22:02:56.270Z,54.21
2023-04-26T22:05:25.878Z,54.21
2023-04-26T22:07:54.302Z,54.23
2023-04-26T22:10:22.179Z,54.23
2023-04-26T22:12:49.913Z,54.32
2023-04-26T22:15:17.745Z,54.40
2023-04-26T22:17:46.902Z,54.26
2023-04-26T22:20:14.668Z,54.33
2023-04-26T22:22:42.461Z,54.09
2023-04-26T22:25:11.180Z,54.26
2023-04-26T22:27:38.959Z,54.29
2023-04-26T22:30:22.878Z,54.39
2023-04-26T22:32:55.458Z,54.07
2023-04-26T22:35:24.607Z,54.09
2023-04-26T22:37:52.536Z,54.37
2023-04-26T22:40:20.538Z,54.08
2023-04-26T22:42:48.548Z,54.17
2023-04-26T22:45:16.651Z,54.17
2023-04-26T22:47:44.598Z,54.00
2023-04-26T22:50:13.992Z,54.13
2023-04-26T22:52:41.898Z,54.25
2023-04-26T22:55:10.595Z,54.16
2023-04-26T22:57:38.562Z,54.16
2023-04-26T23:00:09.561Z,54.46
2023-04-26T23:02:38.139Z,54.31
2023-04-26T23:05:09.695Z,54.14
2023-04-26T23:07:39.210Z,54.14
2023-04-26T23:10:08.302Z,54.31
2023-04-26T23:12:37.068Z,54.16
2023-04-26T23:15:06.066Z,54.34
2023-04-26T23:17:34.800Z,54.14
2023-04-26T23:20:03.020Z,54.01
2023-04-26T23:22:31.045Z,54.28
2023-04-26T23:25:00.583Z,54.06
2023-04-26T23:27:28.412Z,54.28
2023-04-26T23:29:56.846Z,54.03
2023-04-26T23:32:24.941Z,54.30
2023-04-26T23:34:53.446Z,54.50
2023-04-26T23:37:21.496Z,54.42
2023-04-26T23:39:49.301Z,54.32
2023-04-26T23:42:18.446Z,54.45
2023-04-26T23:44:46.335Z,54.35
2023-04-26T23:47:14.292Z,54.51
2023-04-26T23:49:42.109Z,54.60
2023-04-26T23:52:09.951Z,54.57
2023-04-26T23:54:37.700Z,54.70
2023-04-26T23:57:05.523Z,54.51
2023-04-26T23:59:34.742Z,54.66
